Millertown, Canada
Current Conditions -  °F | °C
As of 11:20 PM on Friday 28 Nov 2014 (Local Time) from CYDF Reporting Station
Light Snow Light Snow  
Wind Chill: 23°   Ceiling: 1800
Heat Index: 23°   Visibility: 10mi
Dew Point: 21°   Wind: 0mph
Humidity: 93%   Direction: NA
Pressure: 29.89"   Gusts: NA
Location:  48.82°N, 56.53°W
Report Text: CYDF 290220Z 00000KT 10SM -SN BKN018 OVC050 M05/M06 A2989 RMK SC5SC3 SLP123
Loading
Personal Weather Stations






























Interactive Weather Map New forecast layout! Learn more

10-Day Weather Forecast

Advertisements
Track Severe Weather on mobile